< < Back
Terminal Aerodrome Forecast


Current Version              Previous Versions:   1  2  3  4  5  6  7  8  9  

Terminal Aerodrome Forecast

651
FTUS44 KMOB 241700
TAFMOB
TAF
KMOB 241723Z 2418/2518 18005KT P6SM SCT040 BKN050
     FM250000 19010KT P6SM SCT010
     FM250900 20006KT 4SM BR OVC007
      TEMPO 2510/2513 1/2SM FG VV001
     FM251500 27007KT P6SM OVC015=

Latest METAR

397
SAUS80 KWBC 250200 RRA
MTRMOB
METAR KMOB 250156Z 18005KT 10SM FEW200 19/18 A2993 RMK AO2 SLP133
T01940178


USA.gov is the U.S. government's official web portal to all federal, state and local government web resources and services.